Time;durP1;ratioP1;P1;durP2;ratioP2;P2;SDS_P1;SDS_P2;PMS_P1;PMS_P2;Temp;Humidity;BMP_temperature;BMP_pressure;BME280_temperature;BME280_humidity;BME280_pressure;Samples;Min_cycle;Max_cycle;Signal;HPM_P1;HPM_P2
2022/12/15 00:38:46;;;;;;;7.13;3.40;;;;;;;;;;6245120;23;20000;-65
2022/12/15 00:41:13;;;;;;;6.78;3.53;;;;;;;;;;6244807;22;20011;-65
2022/12/15 00:43:39;;;;;;;8.07;3.63;;;;;;;;;;6245017;23;19996;-65
2022/12/15 00:48:50;;;;;;;6.95;2.97;;;;;;;;;;6245049;23;20066;-65
2022/12/15 00:51:17;;;;;;;6.05;2.53;;;;;;;;;;6244850;23;20004;-65
2022/12/15 01:21:13;;;;;;;5.72;1.38;;;;;;;;;;6244736;23;20004;-65
2022/12/15 01:23:40;;;;;;;4.90;1.77;;;;;;;;;;6244682;23;20007;-65
2022/12/15 01:26:07;;;;;;;10.52;1.88;;;;;;;;;;6244223;22;20532;-65
2022/12/15 01:28:33;;;;;;;6.07;1.70;;;;;;;;;;6244590;23;20430;-65
2022/12/15 01:31:00;;;;;;;2.90;1.70;;;;;;;;;;6244590;23;20157;-65
2022/12/15 01:33:26;;;;;;;6.07;1.80;;;;;;;;;;6244219;23;20071;-65
2022/12/15 01:35:59;;;;;;;5.53;1.88;;;;;;;;;;6244693;23;20004;-65
2022/12/15 01:38:26;;;;;;;3.70;1.88;;;;;;;;;;6244176;23;20011;-65
2022/12/15 01:40:58;;;;;;;3.10;1.42;;;;;;;;;;6244280;23;19996;-65
2022/12/15 01:43:29;;;;;;;9.68;2.15;;;;;;;;;;6243995;23;20000;-65
2022/12/15 01:45:57;;;;;;;6.22;2.10;;;;;;;;;;6244520;23;20042;-65
2022/12/15 01:48:26;;;;;;;5.13;2.58;;;;;;;;;;6244085;23;20004;-65
2022/12/15 01:51:04;;;;;;;5.20;2.45;;;;;;;;;;6244533;23;20031;-65
2022/12/15 01:53:32;;;;;;;11.77;2.67;;;;;;;;;;6243722;23;20008;-65
2022/12/15 01:55:59;;;;;;;9.18;2.85;;;;;;;;;;6244352;23;20000;-65
2022/12/15 01:58:26;;;;;;;7.75;2.80;;;;;;;;;;6244123;23;20435;-65
2022/12/15 02:00:52;;;;;;;11.35;2.55;;;;;;;;;;6244530;23;20076;-65
2022/12/15 02:03:18;;;;;;;11.45;3.45;;;;;;;;;;6244223;23;20342;-65
2022/12/15 02:05:46;;;;;;;6.45;2.67;;;;;;;;;;6244524;23;20334;-65
2022/12/15 02:08:12;;;;;;;13.25;3.13;;;;;;;;;;6243748;22;20438;-65
2022/12/15 02:11:01;;;;;;;10.35;3.60;;;;;;;;;;6243991;23;20015;-65
2022/12/15 02:13:47;;;;;;;8.20;2.83;;;;;;;;;;6121585;23;20465;-65
2022/12/15 02:16:22;;;;;;;6.68;3.08;;;;;;;;;;6121843;23;20010;-65
2022/12/15 02:19:06;;;;;;;13.43;3.22;;;;;;;;;;6122114;23;20014;-65
2022/12/15 02:21:37;;;;;;;12.05;3.30;;;;;;;;;;6121436;23;20092;-65
2022/12/15 02:24:06;;;;;;;6.13;2.88;;;;;;;;;;6121981;23;20487;-65
2022/12/15 02:26:50;;;;;;;7.95;3.22;;;;;;;;;;6121964;23;20034;-65
2022/12/15 02:29:35;;;;;;;9.45;3.17;;;;;;;;;;6121999;23;20034;-65
2022/12/15 02:32:06;;;;;;;7.00;3.15;;;;;;;;;;6121921;23;20445;-65
2022/12/15 02:34:37;;;;;;;7.88;3.63;;;;;;;;;;6121892;23;20016;-65
2022/12/15 02:37:14;;;;;;;8.93;3.40;;;;;;;;;;6121764;23;20468;-65
2022/12/15 02:39:40;;;;;;;12.07;3.50;;;;;;;;;;6121610;23;20085;-65
2022/12/15 02:42:06;;;;;;;10.80;4.03;;;;;;;;;;6122082;23;20025;-65
2022/12/15 02:44:39;;;;;;;9.20;4.13;;;;;;;;;;6121823;23;20006;-65
2022/12/15 02:47:17;;;;;;;10.52;4.30;;;;;;;;;;6122191;23;20107;-65
2022/12/15 02:50:02;;;;;;;9.93;4.22;;;;;;;;;;6146992;23;20019;-65
2022/12/15 02:52:31;;;;;;;9.80;4.50;;;;;;;;;;6243816;23;20018;-65
2022/12/15 02:55:18;;;;;;;11.55;5.30;;;;;;;;;;6243980;23;20122;-65
2022/12/15 02:58:02;;;;;;;10.77;5.10;;;;;;;;;;6242453;23;20016;-65
2022/12/15 03:00:30;;;;;;;12.75;5.10;;;;;;;;;;6243721;23;20012;-65
2022/12/15 03:02:56;;;;;;;16.35;5.03;;;;;;;;;;6244093;23;20011;-65
2022/12/15 03:05:24;;;;;;;15.77;4.70;;;;;;;;;;6243843;23;20000;-65
2022/12/15 03:07:51;;;;;;;9.98;3.83;;;;;;;;;;6243586;23;20004;-65
2022/12/15 03:10:17;;;;;;;10.88;4.47;;;;;;;;;;6244003;23;20004;-65
2022/12/15 03:12:44;;;;;;;12.57;4.93;;;;;;;;;;6244029;23;20026;-65
2022/12/15 03:15:10;;;;;;;14.90;4.60;;;;;;;;;;6244165;22;20000;-65
2022/12/15 03:17:37;;;;;;;10.20;4.35;;;;;;;;;;6245080;23;20008;-65
2022/12/15 03:20:04;;;;;;;11.85;4.75;;;;;;;;;;6245384;23;20029;-65
2022/12/15 03:22:30;;;;;;;11.50;4.40;;;;;;;;;;6245660;23;20024;-65
2022/12/15 03:24:57;;;;;;;10.50;4.63;;;;;;;;;;6246177;23;20319;-65
2022/12/15 03:27:23;;;;;;;12.50;4.85;;;;;;;;;;6244385;23;20329;-65
2022/12/15 03:29:49;;;;;;;14.30;4.20;;;;;;;;;;6245613;23;20012;-65
2022/12/15 03:32:15;;;;;;;11.57;4.90;;;;;;;;;;6245848;23;20427;-65
2022/12/15 03:34:42;;;;;;;10.77;4.97;;;;;;;;;;6245151;23;20012;-65
2022/12/15 03:37:08;;;;;;;10.57;4.55;;;;;;;;;;6245795;23;20083;-65
2022/12/15 03:39:34;;;;;;;8.82;4.65;;;;;;;;;;6245112;23;20004;-65
2022/12/15 03:42:00;;;;;;;8.63;4.00;;;;;;;;;;6245920;23;20050;-65
2022/12/15 03:44:26;;;;;;;11.60;4.18;;;;;;;;;;6246068;23;20071;-65
2022/12/15 03:46:52;;;;;;;10.88;4.47;;;;;;;;;;6245989;23;20004;-65
2022/12/15 03:49:18;;;;;;;11.85;5.28;;;;;;;;;;6245278;23;20012;-65
2022/12/15 03:51:44;;;;;;;12.25;4.50;;;;;;;;;;6244602;23;20067;-65
2022/12/15 03:54:14;;;;;;;11.07;5.35;;;;;;;;;;6245571;23;20338;-65
2022/12/15 03:56:40;;;;;;;16.00;4.63;;;;;;;;;;6245184;23;20004;-65
2022/12/15 03:59:06;;;;;;;14.10;4.70;;;;;;;;;;6245490;23;20058;-65
2022/12/15 04:01:33;;;;;;;13.82;4.57;;;;;;;;;;6245252;23;20058;-65
2022/12/15 04:04:00;;;;;;;12.95;4.63;;;;;;;;;;6245007;23;19996;-65
2022/12/15 04:06:26;;;;;;;12.70;4.55;;;;;;;;;;6245386;23;20000;-65
2022/12/15 04:08:52;;;;;;;14.35;4.90;;;;;;;;;;6245078;23;20015;-65
2022/12/15 04:11:19;;;;;;;11.50;4.50;;;;;;;;;;6245560;23;20054;-65
2022/12/15 04:13:45;;;;;;;10.48;3.88;;;;;;;;;;6244723;23;20020;-65
2022/12/15 04:16:11;;;;;;;11.82;4.20;;;;;;;;;;6245450;23;20086;-65
2022/12/15 04:18:37;;;;;;;12.73;3.45;;;;;;;;;;6244692;23;20007;-65
2022/12/15 04:21:04;;;;;;;9.40;3.53;;;;;;;;;;6244731;23;20023;-65
2022/12/15 04:23:30;;;;;;;9.10;3.80;;;;;;;;;;6245145;23;20007;-65
2022/12/15 05:32:09;;;;;;;16.98;6.65;;;;;;;;;;6243199;23;20082;-65
2022/12/15 05:34:36;;;;;;;13.52;5.95;;;;;;;;;;6243438;23;20014;-65
2022/12/15 05:37:04;;;;;;;12.98;7.10;;;;;;;;;;6242934;22;20044;-65
2022/12/15 05:39:30;;;;;;;14.55;7.90;;;;;;;;;;6243030;23;20040;-64
2022/12/15 05:41:56;;;;;;;14.13;6.38;;;;;;;;;;6243187;23;20015;-64
2022/12/15 05:44:23;;;;;;;18.70;7.05;;;;;;;;;;6243550;23;20000;-65
2022/12/15 05:46:49;;;;;;;17.98;7.18;;;;;;;;;;6242569;22;20004;-65
2022/12/15 05:49:16;;;;;;;19.25;7.30;;;;;;;;;;6243364;23;20004;-65
2022/12/15 05:51:43;;;;;;;18.67;7.47;;;;;;;;;;6243142;23;20004;-65
2022/12/15 05:54:11;;;;;;;18.02;7.40;;;;;;;;;;6243122;23;20438;-65
2022/12/15 05:56:37;;;;;;;16.38;7.25;;;;;;;;;;6243646;23;20354;-65
2022/12/15 05:59:04;;;;;;;15.18;7.20;;;;;;;;;;6243038;23;20035;-65
2022/12/15 06:01:30;;;;;;;23.20;6.93;;;;;;;;;;6242774;23;20343;-65
2022/12/15 06:03:57;;;;;;;18.08;7.43;;;;;;;;;;6243044;23;20000;-65
2022/12/15 06:06:23;;;;;;;22.48;7.00;;;;;;;;;;6243076;23;20004;-65
2022/12/15 06:08:49;;;;;;;13.43;7.07;;;;;;;;;;6242757;23;20373;-65
2022/12/15 06:11:16;;;;;;;15.00;6.85;;;;;;;;;;6242836;23;20008;-65
2022/12/15 06:13:43;;;;;;;16.52;6.80;;;;;;;;;;6242660;23;20134;-65
2022/12/15 06:16:19;;;;;;;20.27;7.57;;;;;;;;;;6242437;23;20461;-65
2022/12/15 06:18:49;;;;;;;15.20;6.72;;;;;;;;;;6241573;23;20011;-65
2022/12/15 06:21:17;;;;;;;15.38;6.35;;;;;;;;;;6243510;23;20087;-65
2022/12/15 06:23:43;;;;;;;18.08;7.13;;;;;;;;;;6244502;23;19996;-65
2022/12/15 06:26:14;;;;;;;16.73;7.72;;;;;;;;;;6243109;23;20076;-65
2022/12/15 06:28:41;;;;;;;15.80;7.18;;;;;;;;;;6242560;22;20403;-65
2022/12/15 06:31:08;;;;;;;17.00;6.40;;;;;;;;;;6242382;23;20015;-66
2022/12/15 06:33:35;;;;;;;14.57;5.68;;;;;;;;;;6242665;22;20008;-66
2022/12/15 06:36:02;;;;;;;15.80;5.75;;;;;;;;;;6242446;22;20445;-66
2022/12/15 06:38:29;;;;;;;20.23;6.05;;;;;;;;;;6243197;22;20074;-66
2022/12/15 06:40:55;;;;;;;13.68;5.03;;;;;;;;;;6242311;23;20003;-66
2022/12/15 06:43:22;;;;;;;15.55;5.75;;;;;;;;;;6242530;23;20012;-66
2022/12/15 06:45:48;;;;;;;12.30;5.65;;;;;;;;;;6242978;23;20000;-66
2022/12/15 06:48:15;;;;;;;17.15;5.63;;;;;;;;;;6242862;23;20034;-67
2022/12/15 06:50:41;;;;;;;11.88;4.80;;;;;;;;;;6243343;23;20005;-67
2022/12/15 06:53:07;;;;;;;12.93;4.95;;;;;;;;;;6245102;23;20012;-66
2022/12/15 06:55:33;;;;;;;12.85;5.80;;;;;;;;;;6244983;23;20000;-66
2022/12/15 06:57:59;;;;;;;13.93;4.95;;;;;;;;;;6245643;23;20004;-66
2022/12/15 07:00:26;;;;;;;14.48;5.05;;;;;;;;;;6245969;23;20007;-66
2022/12/15 07:02:53;;;;;;;9.52;5.15;;;;;;;;;;6245645;22;20077;-66
2022/12/15 07:05:19;;;;;;;9.60;5.20;;;;;;;;;;6245349;23;20439;-66
2022/12/15 07:07:45;;;;;;;12.63;5.63;;;;;;;;;;6245796;23;20050;-66
2022/12/15 07:10:11;;;;;;;13.60;6.45;;;;;;;;;;6245967;23;20007;-66
2022/12/15 07:12:37;;;;;;;17.77;5.65;;;;;;;;;;6244200;23;20027;-66
2022/12/15 07:15:03;;;;;;;16.33;6.18;;;;;;;;;;6245837;23;20019;-66
2022/12/15 07:17:29;;;;;;;12.57;5.93;;;;;;;;;;6246116;23;20016;-66
2022/12/15 07:19:56;;;;;;;19.92;6.90;;;;;;;;;;6245728;23;20075;-66
2022/12/15 07:22:22;;;;;;;17.52;6.43;;;;;;;;;;6245590;23;20084;-66
2022/12/15 07:24:48;;;;;;;13.20;5.93;;;;;;;;;;6245697;23;20070;-66
2022/12/15 07:27:14;;;;;;;14.80;6.47;;;;;;;;;;6245171;23;20007;-66
2022/12/15 07:29:41;;;;;;;13.60;6.15;;;;;;;;;;6245893;23;20007;-66
2022/12/15 07:32:07;;;;;;;16.20;6.07;;;;;;;;;;6245474;23;20008;-66
2022/12/15 07:34:33;;;;;;;12.10;6.18;;;;;;;;;;6246133;23;20046;-66
2022/12/15 07:36:59;;;;;;;16.55;6.50;;;;;;;;;;6245113;23;20066;-66
2022/12/15 07:39:26;;;;;;;13.60;6.03;;;;;;;;;;6245623;23;20032;-66
2022/12/15 07:41:52;;;;;;;11.75;6.22;;;;;;;;;;6245559;22;20000;-66
2022/12/15 07:44:18;;;;;;;16.98;5.75;;;;;;;;;;6245635;22;20000;-66
2022/12/15 07:46:47;;;;;;;15.65;6.85;;;;;;;;;;6245973;23;20004;-66
2022/12/15 07:49:13;;;;;;;16.52;7.55;;;;;;;;;;6243359;23;20008;-66
2022/12/15 07:51:42;;;;;;;13.52;6.15;;;;;;;;;;6245651;23;20008;-66
2022/12/15 07:54:10;;;;;;;13.95;5.57;;;;;;;;;;6245371;23;20008;-66
2022/12/15 07:56:36;;;;;;;11.05;5.68;;;;;;;;;;6245564;23;20469;-66
2022/12/15 07:59:03;;;;;;;14.95;6.43;;;;;;;;;;6245375;23;20018;-66
2022/12/15 08:01:29;;;;;;;19.27;6.63;;;;;;;;;;6245218;23;20007;-65
2022/12/15 08:03:55;;;;;;;15.10;6.25;;;;;;;;;;6244781;23;19996;-65
2022/12/15 08:06:21;;;;;;;16.95;7.70;;;;;;;;;;6245175;23;20099;-65
2022/12/15 08:08:48;;;;;;;13.50;6.57;;;;;;;;;;6244155;23;20414;-66
2022/12/15 08:11:39;;;;;;;15.88;6.18;;;;;;;;;;6242322;23;20069;-66
2022/12/15 08:14:05;;;;;;;15.75;7.07;;;;;;;;;;6243807;23;20023;-66
2022/12/15 08:16:33;;;;;;;16.10;6.93;;;;;;;;;;6244808;23;20016;-66
2022/12/15 08:18:59;;;;;;;16.10;6.63;;;;;;;;;;6244326;23;20158;-66
2022/12/15 08:21:25;;;;;;;18.85;6.93;;;;;;;;;;6244892;23;20004;-66
2022/12/15 08:23:51;;;;;;;17.90;6.85;;;;;;;;;;6244880;23;20008;-66
2022/12/15 08:26:18;;;;;;;14.10;6.82;;;;;;;;;;6242618;23;20000;-66
2022/12/15 08:28:44;;;;;;;13.32;5.45;;;;;;;;;;6243634;23;20036;-66
2022/12/15 08:31:12;;;;;;;18.40;7.00;;;;;;;;;;6243306;23;20008;-66
2022/12/15 08:33:39;;;;;;;17.75;6.70;;;;;;;;;;6243642;23;20134;-66
2022/12/15 08:36:06;;;;;;;17.15;6.97;;;;;;;;;;6243069;23;20011;-66
2022/12/15 08:38:33;;;;;;;18.60;6.80;;;;;;;;;;6243995;23;20004;-66
2022/12/15 08:41:06;;;;;;;22.70;7.22;;;;;;;;;;6242735;23;20000;-66
2022/12/15 08:43:32;;;;;;;18.17;7.22;;;;;;;;;;6243742;23;20004;-66
2022/12/15 08:45:59;;;;;;;20.05;6.97;;;;;;;;;;6243186;23;20003;-66
2022/12/15 08:48:25;;;;;;;19.23;6.97;;;;;;;;;;6243639;22;20015;-66
2022/12/15 08:50:51;;;;;;;18.65;7.20;;;;;;;;;;6243425;23;20455;-66
2022/12/15 08:53:17;;;;;;;17.95;7.45;;;;;;;;;;6242864;23;20012;-66
2022/12/15 08:55:43;;;;;;;17.42;7.63;;;;;;;;;;6243094;23;20416;-66
2022/12/15 08:58:09;;;;;;;21.40;6.68;;;;;;;;;;6242915;23;20014;-66
2022/12/15 09:00:35;;;;;;;16.65;6.85;;;;;;;;;;6243397;23;20385;-66
2022/12/15 09:03:02;;;;;;;16.27;6.40;;;;;;;;;;6242401;23;20010;-66
2022/12/15 09:05:28;;;;;;;15.25;6.65;;;;;;;;;;6243425;23;20028;-66
2022/12/15 09:07:58;;;;;;;17.88;6.22;;;;;;;;;;6241692;23;20000;-66
2022/12/15 09:10:24;;;;;;;20.02;6.82;;;;;;;;;;6242624;22;20000;-66
2022/12/15 09:12:50;;;;;;;15.23;6.07;;;;;;;;;;6243289;23;20403;-66
2022/12/15 09:15:17;;;;;;;12.40;6.65;;;;;;;;;;6242956;23;20386;-66
2022/12/15 09:17:43;;;;;;;20.17;6.55;;;;;;;;;;6243305;23;20046;-66
2022/12/15 09:20:10;;;;;;;15.05;6.85;;;;;;;;;;6242742;23;20054;-66
2022/12/15 09:22:36;;;;;;;18.30;6.57;;;;;;;;;;6242436;23;20339;-66
2022/12/15 09:25:03;;;;;;;17.63;6.68;;;;;;;;;;6242694;23;20445;-66
2022/12/15 09:27:29;;;;;;;17.50;6.90;;;;;;;;;;6243113;23;20000;-66
2022/12/15 09:29:56;;;;;;;23.33;8.00;;;;;;;;;;6243341;22;20443;-66
2022/12/15 09:32:22;;;;;;;15.10;6.30;;;;;;;;;;6242913;23;20094;-66
2022/12/15 09:34:50;;;;;;;15.52;6.93;;;;;;;;;;6243324;23;20066;-66
2022/12/15 09:37:17;;;;;;;21.42;5.78;;;;;;;;;;6242400;23;20296;-66
2022/12/15 09:39:43;;;;;;;17.30;6.82;;;;;;;;;;6242495;22;20092;-66
2022/12/15 09:42:23;;;;;;;13.90;6.63;;;;;;;;;;6242497;23;20023;-66
2022/12/15 09:44:54;;;;;;;13.73;6.15;;;;;;;;;;6242552;22;20015;-66
2022/12/15 09:47:39;;;;;;;18.23;6.57;;;;;;;;;;6242634;23;20008;-66
2022/12/15 09:50:09;;;;;;;17.55;6.30;;;;;;;;;;6242269;23;20079;-66
2022/12/15 09:52:38;;;;;;;13.90;6.22;;;;;;;;;;6242873;23;20074;-66
2022/12/15 09:55:16;;;;;;;15.43;6.30;;;;;;;;;;6243032;23;20328;-66
2022/12/15 09:57:52;;;;;;;16.75;6.75;;;;;;;;;;6242841;23;20205;-66
2022/12/15 10:00:20;;;;;;;16.17;6.85;;;;;;;;;;6242487;22;20473;-66
2022/12/15 10:03:05;;;;;;;14.10;6.93;;;;;;;;;;6242830;22;20331;-66
2022/12/15 10:05:31;;;;;;;15.48;6.28;;;;;;;;;;6242276;23;20062;-66
2022/12/15 10:07:59;;;;;;;12.63;6.25;;;;;;;;;;6242956;22;20334;-66
2022/12/15 10:10:31;;;;;;;13.75;6.32;;;;;;;;;;6241951;23;20019;-66
2022/12/15 10:13:00;;;;;;;17.23;6.57;;;;;;;;;;6242417;22;20012;-66
2022/12/15 10:15:27;;;;;;;17.38;7.03;;;;;;;;;;6242328;23;20066;-66
2022/12/15 10:17:53;;;;;;;18.25;6.07;;;;;;;;;;6242769;23;20028;-66
2022/12/15 10:20:21;;;;;;;15.25;6.38;;;;;;;;;;6242168;23;20519;-66
2022/12/15 10:22:48;;;;;;;13.63;6.32;;;;;;;;;;6242696;23;19996;-66
2022/12/15 10:25:16;;;;;;;13.95;6.18;;;;;;;;;;6242859;23;20078;-66
2022/12/15 10:28:03;;;;;;;11.80;6.28;;;;;;;;;;6245021;23;20269;-66
2022/12/15 10:30:29;;;;;;;20.23;6.95;;;;;;;;;;6244687;23;20126;-66
2022/12/15 10:33:01;;;;;;;18.77;7.40;;;;;;;;;;6245273;23;20000;-66
2022/12/15 10:35:31;;;;;;;20.10;5.95;;;;;;;;;;6243996;23;20038;-66
2022/12/15 10:37:59;;;;;;;17.58;5.82;;;;;;;;;;6244806;23;20015;-66
2022/12/15 10:40:43;;;;;;;21.35;6.38;;;;;;;;;;6244127;22;20005;-66
2022/12/15 10:43:26;;;;;;;14.07;5.75;;;;;;;;;;6244541;23;20008;-66
2022/12/15 10:46:19;;;;;;;12.05;5.18;;;;;;;;;;6243361;23;20008;-66
2022/12/15 10:48:46;;;;;;;16.85;6.20;;;;;;;;;;6238709;23;20016;-66
2022/12/15 10:51:31;;;;;;;8.80;4.95;;;;;;;;;;6244720;23;20000;-66
2022/12/15 10:54:10;;;;;;;9.32;4.25;;;;;;;;;;6245760;23;20354;-66
2022/12/15 10:56:55;;;;;;;15.10;5.97;;;;;;;;;;6244633;23;20074;-66
2022/12/15 10:59:23;;;;;;;11.65;5.22;;;;;;;;;;6244725;23;20470;-66
2022/12/15 11:01:49;;;;;;;9.45;3.95;;;;;;;;;;6245499;23;20026;-66
2022/12/15 11:04:29;;;;;;;11.73;4.05;;;;;;;;;;6244397;23;20015;-66
2022/12/15 11:06:56;;;;;;;8.25;3.85;;;;;;;;;;6244870;23;20000;-66
2022/12/15 11:09:38;;;;;;;10.35;3.60;;;;;;;;;;6244657;23;20036;-66
2022/12/15 11:15:21;;;;;;;11.60;3.58;;;;;;;;;;6243408;23;20020;-66
2022/12/15 11:18:09;;;;;;;9.63;3.35;;;;;;;;;;6242792;23;20062;-66
2022/12/15 11:20:37;;;;;;;16.70;3.65;;;;;;;;;;6241727;23;20051;-66
2022/12/15 11:23:06;;;;;;;8.35;3.55;;;;;;;;;;6242977;23;20091;-66
2022/12/15 11:25:43;;;;;;;18.08;5.78;;;;;;;;;;6244155;23;20008;-66
2022/12/15 11:28:20;;;;;;;12.30;4.05;;;;;;;;;;6244637;23;20019;-66
2022/12/15 11:31:07;;;;;;;11.40;3.85;;;;;;;;;;6243409;22;20004;-66
2022/12/15 11:33:33;;;;;;;10.25;3.78;;;;;;;;;;6223125;23;20419;-66
2022/12/15 11:36:18;;;;;;;14.50;4.32;;;;;;;;;;6244343;23;20010;-66
2022/12/15 11:38:49;;;;;;;10.23;4.13;;;;;;;;;;6243213;23;20085;-66
2022/12/15 11:41:32;;;;;;;15.13;3.55;;;;;;;;;;6244209;23;20342;-66
2022/12/15 11:44:08;;;;;;;9.90;3.83;;;;;;;;;;6244241;23;20004;-66
2022/12/15 11:46:48;;;;;;;9.18;3.40;;;;;;;;;;6243651;22;20008;-66
2022/12/15 11:49:27;;;;;;;13.07;3.45;;;;;;;;;;6242934;23;20014;-65
2022/12/15 11:51:55;;;;;;;8.05;3.08;;;;;;;;;;6244953;23;20015;-67
2022/12/15 11:54:25;;;;;;;9.70;3.33;;;;;;;;;;6245035;23;20442;-67
2022/12/15 11:57:09;;;;;;;10.98;3.08;;;;;;;;;;6244899;23;20066;-67
2022/12/15 11:59:54;;;;;;;11.65;1.90;;;;;;;;;;6244811;23;20008;-67
2022/12/15 12:02:26;;;;;;;12.15;2.60;;;;;;;;;;6244748;23;20008;-66
2022/12/15 12:05:01;;;;;;;9.02;2.60;;;;;;;;;;6244469;23;20327;-66
2022/12/15 12:07:36;;;;;;;9.45;2.50;;;;;;;;;;6243344;22;20000;-66
2022/12/15 12:10:21;;;;;;;8.25;2.47;;;;;;;;;;6243812;23;20091;-66
2022/12/15 12:12:53;;;;;;;10.68;2.58;;;;;;;;;;6243398;23;20078;-66
2022/12/15 12:15:29;;;;;;;7.10;2.78;;;;;;;;;;6244787;23;20012;-66
2022/12/15 12:18:00;;;;;;;8.63;2.42;;;;;;;;;;6244319;22;20008;-66
2022/12/15 12:20:40;;;;;;;12.93;2.33;;;;;;;;;;6244391;23;20008;-66
2022/12/15 12:23:15;;;;;;;6.97;1.95;;;;;;;;;;6244685;23;20085;-67
2022/12/15 12:25:45;;;;;;;6.97;2.50;;;;;;;;;;6243198;23;20393;-66
2022/12/15 12:28:14;;;;;;;13.00;2.50;;;;;;;;;;6241840;23;20000;-66
2022/12/15 12:30:42;;;;;;;11.70;1.92;;;;;;;;;;6243732;23;20071;-66
2022/12/15 12:33:13;;;;;;;5.53;2.33;;;;;;;;;;6243293;23;20014;-66
2022/12/15 12:35:45;;;;;;;9.18;2.08;;;;;;;;;;6243525;23;20007;-66
2022/12/15 12:38:12;;;;;;;12.20;1.90;;;;;;;;;;6243682;23;20350;-66
2022/12/15 12:40:57;;;;;;;10.38;1.95;;;;;;;;;;6243226;23;19996;-66
2022/12/15 12:43:31;;;;;;;6.85;1.90;;;;;;;;;;6245358;22;20079;-66
2022/12/15 12:46:09;;;;;;;5.85;1.85;;;;;;;;;;6244930;23;20366;-66
2022/12/15 12:48:50;;;;;;;7.32;2.33;;;;;;;;;;6245202;23;20055;-66
2022/12/15 12:51:22;;;;;;;6.43;2.10;;;;;;;;;;6244869;23;20011;-66
2022/12/15 12:53:49;;;;;;;5.78;2.30;;;;;;;;;;6244767;23;20057;-66
2022/12/15 12:56:35;;;;;;;4.28;1.80;;;;;;;;;;6244986;23;20007;-66
2022/12/15 12:59:06;;;;;;;8.57;1.90;;;;;;;;;;6224543;22;20023;-66
2022/12/15 13:01:34;;;;;;;6.00;2.00;;;;;;;;;;6245019;22;20000;-66
2022/12/15 13:04:06;;;;;;;7.10;2.95;;;;;;;;;;6244937;23;19997;-66
2022/12/15 13:06:35;;;;;;;8.25;1.75;;;;;;;;;;6245303;23;20047;-66
2022/12/15 13:09:16;;;;;;;7.60;1.77;;;;;;;;;;6245086;23;20361;-66
2022/12/15 13:11:52;;;;;;;7.68;1.67;;;;;;;;;;6245127;23;20015;-66
2022/12/15 13:14:19;;;;;;;7.43;1.65;;;;;;;;;;6244880;23;20025;-66
2022/12/15 13:16:46;;;;;;;3.28;1.30;;;;;;;;;;6244650;23;20008;-66
2022/12/15 13:19:13;;;;;;;7.60;1.88;;;;;;;;;;6244725;23;20015;-66
2022/12/15 13:21:42;;;;;;;4.15;1.15;;;;;;;;;;6245068;23;20000;-66
2022/12/15 13:24:18;;;;;;;9.27;1.63;;;;;;;;;;6244756;22;20083;-66
2022/12/15 13:26:45;;;;;;;6.97;1.38;;;;;;;;;;6245023;23;20457;-66
2022/12/15 13:29:12;;;;;;;7.35;1.45;;;;;;;;;;6244483;23;20004;-66
2022/12/15 13:31:42;;;;;;;6.28;1.65;;;;;;;;;;6244994;23;20338;-66
2022/12/15 13:34:13;;;;;;;2.83;1.33;;;;;;;;;;6244580;22;20350;-66
2022/12/15 13:36:39;;;;;;;5.35;1.48;;;;;;;;;;6244974;23;20075;-66
2022/12/15 13:39:12;;;;;;;3.35;1.45;;;;;;;;;;6244605;23;20000;-66
2022/12/15 13:41:41;;;;;;;2.95;1.27;;;;;;;;;;6244917;23;20015;-66
2022/12/15 13:44:14;;;;;;;3.50;1.30;;;;;;;;;;6242636;23;20019;-66
2022/12/15 13:46:43;;;;;;;2.60;1.27;;;;;;;;;;6244890;22;20393;-66
2022/12/15 13:49:14;;;;;;;2.97;1.08;;;;;;;;;;6244820;23;20070;-66
2022/12/15 13:51:47;;;;;;;4.75;1.33;;;;;;;;;;6244746;23;20011;-66
2022/12/15 13:54:15;;;;;;;4.05;1.50;;;;;;;;;;6244524;22;20032;-66
2022/12/15 13:56:45;;;;;;;4.57;1.23;;;;;;;;;;6244833;23;20012;-66
2022/12/15 13:59:34;;;;;;;3.85;1.20;;;;;;;;;;6243937;22;20015;-66
2022/12/15 14:02:01;;;;;;;5.05;1.50;;;;;;;;;;6122236;23;20084;-66
2022/12/15 14:04:27;;;;;;;3.90;1.10;;;;;;;;;;6122552;23;20037;-66
2022/12/15 14:06:53;;;;;;;5.70;1.20;;;;;;;;;;6122516;23;20088;-66
2022/12/15 14:09:26;;;;;;;3.58;1.08;;;;;;;;;;6122471;23;20021;-66
2022/12/15 14:11:53;;;;;;;4.40;1.45;;;;;;;;;;6122741;23;20010;-66
2022/12/15 14:14:22;;;;;;;3.58;1.30;;;;;;;;;;6121563;23;20508;-66
2022/12/15 14:16:56;;;;;;;2.75;1.08;;;;;;;;;;6122359;23;20081;-66
2022/12/15 14:19:22;;;;;;;4.63;1.20;;;;;;;;;;6122361;23;20013;-66
2022/12/15 14:21:58;;;;;;;3.70;1.77;;;;;;;;;;6122494;23;20030;-66
2022/12/15 14:24:29;;;;;;;3.78;1.30;;;;;;;;;;6122125;23;20536;-66
2022/12/15 14:26:55;;;;;;;6.60;2.03;;;;;;;;;;6122510;23;20013;-66
2022/12/15 14:29:22;;;;;;;5.68;1.55;;;;;;;;;;6122159;23;20057;-66
2022/12/15 14:31:53;;;;;;;7.13;1.70;;;;;;;;;;6122390;23;20021;-66
2022/12/15 14:34:19;;;;;;;3.95;1.50;;;;;;;;;;6122190;23;20042;-66
2022/12/15 14:36:49;;;;;;;2.10;1.25;;;;;;;;;;6122461;23;20006;-66
2022/12/15 14:39:34;;;;;;;7.35;1.40;;;;;;;;;;6197161;23;20013;-66
2022/12/15 14:42:01;;;;;;;7.55;1.60;;;;;;;;;;6243876;22;20058;-66
2022/12/15 14:44:32;;;;;;;6.85;1.30;;;;;;;;;;6244467;22;20316;-66
2022/12/15 14:46:59;;;;;;;9.48;1.52;;;;;;;;;;6244338;23;20004;-66
2022/12/15 14:49:30;;;;;;;3.72;1.20;;;;;;;;;;6244298;23;20083;-66
2022/12/15 14:51:59;;;;;;;8.77;1.40;;;;;;;;;;6244566;23;20008;-66
2022/12/15 14:54:29;;;;;;;2.63;1.27;;;;;;;;;;6244216;23;20015;-66
2022/12/15 14:57:00;;;;;;;2.28;1.20;;;;;;;;;;6243918;23;20031;-66
2022/12/15 14:59:30;;;;;;;3.03;1.25;;;;;;;;;;6244220;22;20012;-66
2022/12/15 15:02:10;;;;;;;5.53;1.33;;;;;;;;;;6244405;23;20508;-66
2022/12/15 15:04:36;;;;;;;9.77;4.18;;;;;;;;;;6244585;22;20460;-66
2022/12/15 15:07:04;;;;;;;7.55;1.20;;;;;;;;;;6244101;23;20004;-66
2022/12/15 15:09:40;;;;;;;5.18;1.23;;;;;;;;;;6242709;23;20012;-66
2022/12/15 15:12:07;;;;;;;4.25;1.33;;;;;;;;;;6244005;23;20004;-66
2022/12/15 15:14:44;;;;;;;6.13;1.42;;;;;;;;;;6246059;23;20016;-66
2022/12/15 15:17:15;;;;;;;5.60;1.30;;;;;;;;;;6246178;23;20024;-66
2022/12/15 15:20:08;;;;;;;4.28;1.65;;;;;;;;;;6246452;22;20338;-66
2022/12/15 15:22:39;;;;;;;3.70;1.40;;;;;;;;;;6240945;23;20011;-66
2022/12/15 15:25:24;;;;;;;6.57;1.30;;;;;;;;;;6244765;22;20004;-66
2022/12/15 15:27:50;;;;;;;5.43;1.58;;;;;;;;;;6244428;23;20000;-66
2022/12/15 15:30:23;;;;;;;6.78;1.60;;;;;;;;;;6243228;23;20004;-66
2022/12/15 15:32:53;;;;;;;5.53;1.42;;;;;;;;;;6241071;23;20047;-66
2022/12/15 15:35:21;;;;;;;3.17;1.52;;;;;;;;;;6244237;23;20130;-66
2022/12/15 15:37:47;;;;;;;11.50;1.80;;;;;;;;;;6245074;23;20448;-66
2022/12/15 15:40:16;;;;;;;5.93;1.80;;;;;;;;;;6242670;23;20078;-66
2022/12/15 15:42:44;;;;;;;10.15;2.20;;;;;;;;;;6243258;23;20015;-66
2022/12/15 15:45:12;;;;;;;6.88;2.25;;;;;;;;;;6243714;23;20056;-66
2022/12/15 15:47:39;;;;;;;8.82;1.77;;;;;;;;;;6244425;22;20007;-67
2022/12/15 15:50:05;;;;;;;5.38;1.48;;;;;;;;;;6245544;23;20087;-67
2022/12/15 15:52:32;;;;;;;10.23;2.30;;;;;;;;;;6245835;23;20465;-66
2022/12/15 15:54:59;;;;;;;13.13;2.65;;;;;;;;;;6245212;23;20004;-66
2022/12/15 15:57:25;;;;;;;11.57;2.28;;;;;;;;;;6245594;23;20004;-64
2022/12/15 15:59:51;;;;;;;13.68;2.20;;;;;;;;;;6244577;23;20044;-66
2022/12/15 16:02:18;;;;;;;12.77;2.05;;;;;;;;;;6245644;22;20000;-66
2022/12/15 16:04:44;;;;;;;12.07;1.85;;;;;;;;;;6245217;23;20250;-66
2022/12/15 16:07:22;;;;;;;24.45;2.17;;;;;;;;;;6245810;22;19992;-66
2022/12/15 16:09:49;;;;;;;12.48;2.40;;;;;;;;;;6244966;22;20016;-66
2022/12/15 16:12:38;;;;;;;8.15;2.60;;;;;;;;;;6245390;23;20007;-66
2022/12/15 16:15:14;;;;;;;14.20;2.13;;;;;;;;;;6245369;23;20016;-66
2022/12/15 16:17:41;;;;;;;18.08;3.72;;;;;;;;;;6245328;23;20016;-66
2022/12/15 16:20:08;;;;;;;15.57;2.20;;;;;;;;;;6245396;22;20011;-66
2022/12/15 16:22:34;;;;;;;11.77;2.00;;;;;;;;;;6245310;23;20000;-66
2022/12/15 16:25:01;;;;;;;12.32;1.90;;;;;;;;;;6244544;23;20072;-66
2022/12/15 16:27:27;;;;;;;12.27;1.88;;;;;;;;;;6245182;23;20008;-66
2022/12/15 16:29:53;;;;;;;13.98;1.90;;;;;;;;;;6245339;23;20031;-66
2022/12/15 16:32:19;;;;;;;10.35;1.70;;;;;;;;;;6245475;23;20008;-66
2022/12/15 16:34:48;;;;;;;10.45;2.22;;;;;;;;;;6245099;23;20007;-66
2022/12/15 16:37:23;;;;;;;13.20;2.08;;;;;;;;;;6245208;22;20083;-66
2022/12/15 16:39:49;;;;;;;17.88;1.80;;;;;;;;;;6244401;23;20400;-65
2022/12/15 16:42:15;;;;;;;9.48;1.60;;;;;;;;;;6245071;23;20010;-65
2022/12/15 16:44:41;;;;;;;11.70;1.98;;;;;;;;;;6244890;23;20487;-65
2022/12/15 16:47:08;;;;;;;10.25;1.88;;;;;;;;;;6244984;23;20004;-66
2022/12/15 16:49:34;;;;;;;6.15;1.60;;;;;;;;;;6244693;22;20437;-66
2022/12/15 16:52:01;;;;;;;10.75;2.65;;;;;;;;;;6244876;23;20419;-66
2022/12/15 16:54:28;;;;;;;6.57;1.60;;;;;;;;;;6245089;23;20468;-66
2022/12/15 16:56:55;;;;;;;8.60;1.67;;;;;;;;;;6244570;23;20082;-66
2022/12/15 16:59:22;;;;;;;12.45;2.00;;;;;;;;;;6244815;23;20016;-66
2022/12/15 17:01:49;;;;;;;11.90;2.22;;;;;;;;;;6244536;23;20079;-66
2022/12/15 17:04:15;;;;;;;11.18;2.03;;;;;;;;;;6245009;22;20439;-66
2022/12/15 17:06:41;;;;;;;5.80;1.73;;;;;;;;;;6244191;23;20005;-66
2022/12/15 17:09:13;;;;;;;6.18;2.00;;;;;;;;;;6244963;23;20442;-66